Terminal Aerodrome Forecast
Issued by NWS

Home | Current Version | Previous Version | Text Only | Print | Product List | Glossary On
Versions: 1 2 3 4 5 6 7 8 9 10 11 12 13 14 15 16 17 18 19 20 21 22 23 24 25 26 27 28 29 30 31 32
000
FTUS43 KGLD 281120
TAFMCK
TAF
KMCK 281120Z 2812/2912 13007KT P6SM BKN250
      TEMPO 2812/2814 SCT005 BKN015
     FM281500 14008KT P6SM OVC007
     FM281900 15011KT P6SM VCSH SCT015 BKN025
     FM282200 15012KT P6SM BKN030
     FM290100 10010KT P6SM VCTS SCT050CB SCT300
      TEMPO 2902/2905 4SM +TSRA BR
     FM290700 29006KT P6SM BKN080=

USA.gov is the U.S. government's official web portal to all federal, state and local government web resources and services.